createdAt,value
2022-10-30T00:01:07.051Z,101703.91
2022-10-30T00:03:33.940Z,101703.03
2022-10-30T00:06:06.231Z,101693.41
2022-10-30T00:08:33.653Z,101690.78
2022-10-30T00:11:12.855Z,101682.91
2022-10-30T00:13:39.983Z,101674.16
2022-10-30T00:16:08.437Z,101671.53
2022-10-30T00:18:37.319Z,101665.38
2022-10-30T00:21:09.729Z,101665.38
2022-10-30T00:23:36.806Z,101664.50
2022-10-30T00:26:07.958Z,101664.50
2022-10-30T00:28:34.964Z,101657.53
2022-10-30T00:31:03.418Z,101653.16
2022-10-30T00:33:30.314Z,101661.91
2022-10-30T00:35:58.396Z,101654.91
2022-10-30T00:38:25.292Z,101650.50
2022-10-30T00:40:52.302Z,101645.28
2022-10-30T00:43:34.400Z,101641.78
2022-10-30T00:46:19.341Z,101641.78
2022-10-30T00:48:55.052Z,101635.66
2022-10-30T00:51:22.880Z,101644.41
2022-10-30T00:53:51.236Z,101640.06
2022-10-30T00:56:22.289Z,101645.34
2022-10-30T00:59:01.995Z,101639.22
2022-10-30T01:01:32.732Z,101640.09
2022-10-30T01:04:02.908Z,101649.78
2022-10-30T01:06:34.320Z,101646.28
2022-10-30T01:09:02.974Z,101641.03
2022-10-30T01:11:30.073Z,101648.00
2022-10-30T01:14:04.240Z,101643.63
2022-10-30T01:17:00.285Z,101641.91
2022-10-30T01:19:49.952Z,101660.31
2022-10-30T01:22:51.706Z,101657.69
2022-10-30T01:26:14.878Z,101656.84
2022-10-30T01:28:59.607Z,101653.34
2022-10-30T01:31:52.556Z,101644.63
2022-10-30T01:34:38.175Z,101647.25
2022-10-30T01:37:18.145Z,101646.41
2022-10-30T01:39:45.093Z,101646.41
2022-10-30T01:42:45.261Z,101642.06
2022-10-30T01:45:44.829Z,101637.69
2022-10-30T01:48:50.095Z,101634.19
2022-10-30T01:51:28.755Z,101615.78
2022-10-30T01:54:20.582Z,101613.19
2022-10-30T01:57:16.862Z,101605.28
2022-10-30T02:00:15.501Z,101615.81
2022-10-30T02:02:49.166Z,101614.06
2022-10-30T02:05:38.987Z,101604.47
2022-10-30T02:08:06.213Z,101610.59
2022-10-30T02:10:37.073Z,101614.97
2022-10-30T02:13:05.194Z,101608.84
2022-10-30T02:15:32.775Z,101599.22
2022-10-30T02:18:00.984Z,101609.75
2022-10-30T02:20:28.966Z,101594.88
2022-10-30T02:22:59.048Z,101600.09
2022-10-30T02:25:31.348Z,101598.38
2022-10-30T02:27:59.192Z,101606.25
2022-10-30T02:30:28.097Z,101603.63
2022-10-30T02:32:55.218Z,101604.50
2022-10-30T02:35:25.476Z,101612.34
2022-10-30T02:37:52.736Z,101610.59
2022-10-30T02:40:19.614Z,101614.09
2022-10-30T02:42:53.050Z,101618.47
2022-10-30T02:45:20.301Z,101615.84
2022-10-30T02:47:48.444Z,101616.75
2022-10-30T02:50:15.482Z,101617.59
2022-10-30T02:52:42.420Z,101622.00
2022-10-30T02:55:09.725Z,101628.13
2022-10-30T02:57:38.066Z,101626.34
2022-10-30T03:00:06.104Z,101628.09
2022-10-30T03:02:33.424Z,101634.22
2022-10-30T03:05:00.639Z,101635.06
2022-10-30T03:07:27.590Z,101630.72
2022-10-30T03:09:54.964Z,101632.47
2022-10-30T03:12:22.851Z,101633.34
2022-10-30T03:14:52.270Z,101628.97
2022-10-30T03:17:19.146Z,101634.19
2022-10-30T03:19:47.465Z,101628.97
2022-10-30T03:22:14.391Z,101622.84
2022-10-30T03:24:41.302Z,101629.81
2022-10-30T03:27:08.204Z,101631.59
2022-10-30T03:29:35.106Z,101625.44
2022-10-30T03:32:03.859Z,101624.56
2022-10-30T03:34:35.800Z,101622.81
2022-10-30T03:37:06.217Z,101617.56
2022-10-30T03:39:33.806Z,101611.47
2022-10-30T03:42:02.731Z,101610.59
2022-10-30T03:44:29.689Z,101607.09
2022-10-30T03:46:58.254Z,101605.31
2022-10-30T03:49:32.472Z,101604.44
2022-10-30T03:52:01.408Z,101593.09
2022-10-30T03:54:28.326Z,101593.94
2022-10-30T03:56:55.217Z,101601.81
2022-10-30T03:59:23.812Z,101593.09
2022-10-30T04:02:07.211Z,101588.72
2022-10-30T04:04:34.651Z,101593.94
2022-10-30T04:07:02.444Z,101601.81
2022-10-30T04:09:29.435Z,101599.22
2022-10-30T04:11:56.398Z,101603.56
2022-10-30T04:14:23.324Z,101610.59
2022-10-30T04:16:50.273Z,101603.56
2022-10-30T04:19:17.507Z,101608.84
2022-10-30T04:21:47.740Z,101602.69
2022-10-30T04:24:17.175Z,101602.69
2022-10-30T04:26:46.000Z,101611.41
2022-10-30T04:29:12.883Z,101606.19
2022-10-30T04:31:39.798Z,101614.06
2022-10-30T04:34:06.727Z,101607.03
2022-10-30T04:36:34.164Z,101610.56
2022-10-30T04:39:02.466Z,101598.31
2022-10-30T04:41:29.764Z,101607.03
2022-10-30T04:44:04.525Z,101600.94
2022-10-30T04:46:32.898Z,101602.69
2022-10-30T04:49:07.234Z,101598.34
2022-10-30T04:51:34.761Z,101600.09
2022-10-30T04:54:01.977Z,101597.47
2022-10-30T04:56:32.961Z,101597.44
2022-10-30T04:59:00.110Z,101599.19
2022-10-30T05:01:27.206Z,101599.16
2022-10-30T05:03:55.000Z,101602.66
2022-10-30T05:06:25.265Z,101603.53
2022-10-30T05:08:52.286Z,101585.22
2022-10-30T05:11:39.509Z,101596.56
2022-10-30T05:14:07.383Z,101591.31
2022-10-30T05:16:34.277Z,101594.81
2022-10-30T05:19:03.507Z,101591.31
2022-10-30T05:21:30.723Z,101590.47
2022-10-30T05:23:58.831Z,101586.09
2022-10-30T05:26:26.969Z,101579.09
2022-10-30T05:28:54.032Z,101571.25
2022-10-30T05:31:20.958Z,101582.59
2022-10-30T05:34:07.410Z,101566.00
2022-10-30T05:36:35.349Z,101572.13
2022-10-30T05:39:03.236Z,101555.50
2022-10-30T05:41:34.707Z,101564.25
2022-10-30T05:44:02.307Z,101567.75
2022-10-30T05:46:29.291Z,101566.00
2022-10-30T05:49:03.931Z,101572.13
2022-10-30T05:51:35.270Z,101579.09
2022-10-30T05:54:05.981Z,101572.13
2022-10-30T05:56:35.961Z,101579.09
2022-10-30T05:59:02.917Z,101580.00
2022-10-30T06:01:29.948Z,101579.09
2022-10-30T06:03:59.452Z,101577.34
2022-10-30T06:06:27.452Z,101573.00
2022-10-30T06:08:54.349Z,101557.28
2022-10-30T06:11:49.199Z,101559.00
2022-10-30T06:14:16.852Z,101552.03
2022-10-30T06:16:51.438Z,101555.53
2022-10-30T06:19:33.282Z,101559.00
2022-10-30T06:22:13.835Z,101555.50
2022-10-30T06:24:50.165Z,101556.38
2022-10-30T06:27:43.053Z,101555.50
2022-10-30T06:30:10.387Z,101559.88
2022-10-30T06:32:37.307Z,101559.88
2022-10-30T06:35:04.707Z,101568.59
2022-10-30T06:37:31.636Z,101564.25
2022-10-30T06:40:10.263Z,101552.88
2022-10-30T06:42:56.496Z,101562.47
2022-10-30T06:45:52.788Z,101552.84
2022-10-30T06:48:19.811Z,101555.50
2022-10-30T06:50:56.420Z,101551.09
2022-10-30T06:53:24.891Z,101548.47
2022-10-30T06:56:02.219Z,101543.25
2022-10-30T06:58:42.181Z,101545.00
2022-10-30T07:01:12.629Z,101544.13
2022-10-30T07:04:15.542Z,101547.63
2022-10-30T07:06:43.995Z,101552.00
2022-10-30T07:09:11.041Z,101543.25
2022-10-30T07:11:40.137Z,101545.91
2022-10-30T07:14:18.879Z,101540.63
2022-10-30T07:17:00.060Z,101545.03
2022-10-30T07:19:28.448Z,101536.28
2022-10-30T07:21:56.653Z,101537.16
2022-10-30T07:24:23.843Z,101536.28
2022-10-30T07:27:17.395Z,101538.91
2022-10-30T07:30:02.967Z,101527.56
2022-10-30T07:32:38.904Z,101536.31
2022-10-30T07:35:14.317Z,101536.31
2022-10-30T07:37:54.479Z,101536.28
2022-10-30T07:40:29.145Z,101529.31
2022-10-30T07:43:24.996Z,101536.28
2022-10-30T07:46:10.552Z,101539.78
2022-10-30T07:48:56.801Z,101537.19
2022-10-30T07:51:28.996Z,101538.91
2022-10-30T07:53:55.944Z,101542.44
2022-10-30T07:56:24.837Z,101566.88
2022-10-30T07:59:11.713Z,101566.91
2022-10-30T08:01:58.181Z,101575.63
2022-10-30T08:04:32.554Z,101572.13
2022-10-30T08:07:08.987Z,101576.47
2022-10-30T08:09:35.889Z,101580.00
2022-10-30T08:12:02.912Z,101579.13
2022-10-30T08:14:29.840Z,101580.84
2022-10-30T08:16:56.862Z,101575.59
2022-10-30T08:19:23.942Z,101576.44
2022-10-30T08:21:51.286Z,101586.03
2022-10-30T08:24:20.802Z,101588.66
2022-10-30T08:26:52.906Z,101575.50
2022-10-30T08:29:21.764Z,101579.84
2022-10-30T08:31:50.937Z,101578.91
2022-10-30T08:34:24.237Z,101587.63
2022-10-30T08:36:53.237Z,101589.38
2022-10-30T08:39:20.681Z,101577.94
2022-10-30T08:41:59.118Z,101581.44
2022-10-30T08:44:28.589Z,101572.66
2022-10-30T08:47:24.213Z,101571.72
2022-10-30T08:49:51.125Z,101563.81
2022-10-30T08:52:21.678Z,101567.31
2022-10-30T08:54:54.451Z,101568.13
2022-10-30T08:57:23.481Z,101559.31
2022-10-30T08:59:51.837Z,101569.78
2022-10-30T09:02:50.660Z,101572.34
2022-10-30T09:05:37.611Z,101564.44
2022-10-30T09:08:30.431Z,101568.72
2022-10-30T09:11:08.930Z,101565.13
2022-10-30T09:13:37.238Z,101566.78
2022-10-30T09:16:06.433Z,101556.19
2022-10-30T09:18:36.302Z,101558.78
2022-10-30T09:21:05.058Z,101563.09
2022-10-30T09:23:37.250Z,101554.19
2022-10-30T09:26:32.803Z,101544.44
2022-10-30T09:29:06.762Z,101540.81
2022-10-30T09:31:52.183Z,101545.97
2022-10-30T09:34:20.470Z,101550.28
2022-10-30T09:36:55.088Z,101542.31
2022-10-30T09:39:25.315Z,101551.84
2022-10-30T09:42:36.519Z,101548.25
2022-10-30T09:45:45.334Z,101549.06
2022-10-30T09:48:36.790Z,101540.22
2022-10-30T09:52:05.691Z,101540.13
2022-10-30T09:55:17.527Z,101548.81
2022-10-30T09:58:00.045Z,101546.19
2022-10-30T10:00:52.961Z,101547.84
2022-10-30T10:06:57.878Z,101543.25
2022-10-30T10:09:54.542Z,101544.91
2022-10-30T10:12:44.178Z,101547.44
2022-10-30T10:15:21.882Z,101552.63
2022-10-30T10:17:48.787Z,101550.78
2022-10-30T10:20:31.477Z,101538.38
2022-10-30T10:23:01.439Z,101539.13
2022-10-30T10:25:31.135Z,101539.03
2022-10-30T10:28:40.785Z,101535.50
2022-10-30T10:31:40.855Z,101537.94
2022-10-30T10:34:19.682Z,101536.94
2022-10-30T10:37:22.057Z,101537.72
2022-10-30T10:40:36.614Z,101529.72
2022-10-30T10:43:19.059Z,101527.84
2022-10-30T10:46:25.093Z,101524.19
2022-10-30T10:49:20.149Z,101529.34
2022-10-30T10:52:12.052Z,101523.91
2022-10-30T10:55:01.058Z,101521.97
2022-10-30T10:57:33.959Z,101517.53
2022-10-30T11:00:20.624Z,101516.50
2022-10-30T11:02:59.249Z,101516.34
2022-10-30T11:05:39.986Z,101503.09
2022-10-30T11:08:20.137Z,101504.72
2022-10-30T11:10:56.422Z,101500.28
2022-10-30T11:13:31.258Z,101516.81
2022-10-30T11:16:33.375Z,101507.94
2022-10-30T11:19:08.775Z,101518.41
2022-10-30T11:21:43.655Z,101518.34
2022-10-30T11:24:28.376Z,101521.66
2022-10-30T11:26:57.985Z,101525.06
2022-10-30T11:29:29.674Z,101508.34
2022-10-30T11:32:03.344Z,101522.16
2022-10-30T11:34:39.613Z,101522.06
2022-10-30T11:37:30.321Z,101530.78
2022-10-30T11:40:12.491Z,101532.44
2022-10-30T11:43:02.160Z,101522.59
2022-10-30T11:45:33.577Z,101518.13
2022-10-30T11:48:03.042Z,101526.78
2022-10-30T11:50:32.711Z,101520.47
2022-10-30T11:53:30.334Z,101523.91
2022-10-30T11:55:58.876Z,101533.41
2022-10-30T11:58:36.590Z,101522.72
2022-10-30T12:01:22.444Z,101518.16
2022-10-30T12:03:50.152Z,101510.97
2022-10-30T12:06:24.826Z,101508.19
2022-10-30T12:09:04.188Z,101514.25
2022-10-30T12:11:34.928Z,101507.06
2022-10-30T12:14:02.774Z,101506.09
2022-10-30T12:16:30.760Z,101510.38
2022-10-30T12:19:04.611Z,101510.16
2022-10-30T12:21:40.472Z,101512.78
2022-10-30T12:24:18.549Z,101517.06
2022-10-30T12:26:49.953Z,101513.38
2022-10-30T12:29:20.697Z,101518.59
2022-10-30T12:31:56.899Z,101517.56
2022-10-30T12:34:53.799Z,101522.81
2022-10-30T12:37:40.751Z,101519.25
2022-10-30T12:40:16.558Z,101522.66
2022-10-30T12:43:02.930Z,101512.94
2022-10-30T12:46:15.577Z,101518.91
2022-10-30T12:48:52.044Z,101517.97
2022-10-30T12:51:35.993Z,101516.97
2022-10-30T12:54:22.844Z,101529.25
2022-10-30T12:57:07.517Z,101515.03
2022-10-30T13:00:03.630Z,101518.53
2022-10-30T13:03:19.802Z,101507.84
2022-10-30T13:06:05.488Z,101502.44
2022-10-30T13:08:42.577Z,101504.13
2022-10-30T13:11:37.810Z,101495.28
2022-10-30T13:14:11.714Z,101496.09
2022-10-30T13:16:38.602Z,101491.56
2022-10-30T13:19:11.023Z,101495.06
2022-10-30T13:22:04.231Z,101493.44
2022-10-30T13:24:57.906Z,101495.06
2022-10-30T13:27:48.102Z,101492.53
2022-10-30T13:30:19.897Z,101498.56
2022-10-30T13:33:24.638Z,101501.19
2022-10-30T13:36:00.587Z,101495.91
2022-10-30T13:38:47.205Z,101499.47
2022-10-30T13:41:59.529Z,101500.34
2022-10-30T13:44:51.513Z,101505.66
2022-10-30T13:47:30.532Z,101489.03
2022-10-30T13:50:16.784Z,101498.56
2022-10-30T13:52:54.218Z,101483.84
2022-10-30T13:55:31.661Z,101505.66
2022-10-30T13:58:23.963Z,101504.81
2022-10-30T14:01:15.309Z,101508.44
2022-10-30T14:04:05.248Z,101502.31
2022-10-30T14:06:57.031Z,101498.81
2022-10-30T14:09:57.013Z,101498.91
2022-10-30T14:12:57.249Z,101505.19
2022-10-30T14:15:30.128Z,101508.75
2022-10-30T14:18:11.956Z,101511.47
2022-10-30T14:20:51.955Z,101513.25
2022-10-30T14:23:34.975Z,101507.34
2022-10-30T14:26:12.964Z,101510.81
2022-10-30T14:28:45.242Z,101522.31
2022-10-30T14:31:18.779Z,101518.88
2022-10-30T14:33:54.362Z,101519.75
2022-10-30T14:36:39.862Z,101526.00
2022-10-30T14:39:09.376Z,101521.56
2022-10-30T14:42:02.916Z,101527.81
2022-10-30T14:45:17.413Z,101524.44
2022-10-30T14:47:56.628Z,101532.50
2022-10-30T14:50:53.073Z,101532.59
2022-10-30T14:53:47.772Z,101534.53
2022-10-30T14:56:30.512Z,101535.47
2022-10-30T14:59:12.250Z,101531.09
2022-10-30T15:01:54.254Z,101534.72
2022-10-30T15:04:42.811Z,101533.94
2022-10-30T15:07:34.147Z,101535.88
2022-10-30T15:10:19.816Z,101541.25
2022-10-30T15:13:15.566Z,101538.75
2022-10-30T15:15:43.489Z,101538.97
2022-10-30T15:18:20.585Z,101550.56
2022-10-30T15:20:52.828Z,101548.97
2022-10-30T15:23:29.455Z,101549.94
2022-10-30T15:26:14.913Z,101548.34
2022-10-30T15:28:41.887Z,101553.75
2022-10-30T15:31:24.203Z,101551.25
2022-10-30T15:33:51.826Z,101544.28
2022-10-30T15:36:23.030Z,101546.19
2022-10-30T15:39:12.409Z,101546.41
2022-10-30T15:41:50.195Z,101548.25
2022-10-30T15:44:22.530Z,101552.78
2022-10-30T15:46:52.860Z,101550.31
2022-10-30T15:49:38.724Z,101547.00
2022-10-30T15:52:19.694Z,101541.03
2022-10-30T15:54:52.253Z,101540.25
2022-10-30T15:58:02.358Z,101536.09
2022-10-30T16:00:37.570Z,101539.78
2022-10-30T16:03:13.487Z,101540.78
2022-10-30T16:05:40.679Z,101535.72
2022-10-30T16:08:18.819Z,101540.16
2022-10-30T16:10:46.568Z,101543.72
2022-10-30T16:13:19.033Z,101536.88
2022-10-30T16:15:47.510Z,101541.31
2022-10-30T16:18:22.473Z,101539.69
2022-10-30T16:21:02.345Z,101538.91
2022-10-30T16:23:30.608Z,101543.47
2022-10-30T16:25:59.596Z,101540.00
2022-10-30T16:28:34.320Z,101534.84
2022-10-30T16:31:05.675Z,101541.16
2022-10-30T16:33:35.775Z,101544.00
2022-10-30T16:36:05.017Z,101544.03
2022-10-30T16:38:36.877Z,101544.16
2022-10-30T16:41:13.368Z,101546.88
2022-10-30T16:44:06.985Z,101542.59
2022-10-30T16:46:48.091Z,101540.13
2022-10-30T16:49:26.300Z,101552.50
2022-10-30T16:52:04.531Z,101563.13
2022-10-30T16:54:41.189Z,101560.59
2022-10-30T16:57:30.373Z,101571.22
2022-10-30T16:59:59.585Z,101568.66
2022-10-30T17:02:30.236Z,101572.25
2022-10-30T17:05:12.549Z,101563.59
2022-10-30T17:07:39.439Z,101569.78
2022-10-30T17:10:33.306Z,101569.00
2022-10-30T17:13:42.613Z,101555.06
2022-10-30T17:16:34.417Z,101554.31
2022-10-30T17:19:31.267Z,101565.78
2022-10-30T17:22:07.599Z,101566.72
2022-10-30T17:24:37.094Z,101578.16
2022-10-30T17:27:07.336Z,101577.34
2022-10-30T17:29:37.219Z,101581.81
2022-10-30T17:32:28.502Z,101585.34
2022-10-30T17:35:19.331Z,101579.28
2022-10-30T17:37:46.227Z,101583.72
2022-10-30T17:40:13.821Z,101588.13
2022-10-30T17:42:41.196Z,101585.53
2022-10-30T17:45:14.964Z,101586.50
2022-10-30T17:47:43.164Z,101589.16
2022-10-30T17:50:10.436Z,101584.00
2022-10-30T17:52:37.340Z,101583.13
2022-10-30T17:55:23.644Z,101594.59
2022-10-30T17:57:50.526Z,101591.09
2022-10-30T18:00:17.662Z,101601.69
2022-10-30T18:02:44.540Z,101601.72
2022-10-30T18:05:21.943Z,101597.41
2022-10-30T18:10:16.626Z,101601.84
2022-10-30T18:12:44.944Z,101595.72
2022-10-30T18:15:39.275Z,101596.63
2022-10-30T18:18:06.488Z,101604.56
2022-10-30T18:20:33.749Z,101585.31
2022-10-30T18:23:01.124Z,101594.13
2022-10-30T18:25:35.996Z,101593.28
2022-10-30T18:28:03.198Z,101594.19
2022-10-30T18:30:30.438Z,101595.97
2022-10-30T18:32:57.610Z,101595.97
2022-10-30T18:35:33.630Z,101610.06
2022-10-30T18:38:01.544Z,101594.31
2022-10-30T18:40:29.148Z,101599.59
2022-10-30T18:42:57.127Z,101601.38
2022-10-30T18:45:37.955Z,101601.41
2022-10-30T18:48:05.229Z,101597.91
2022-10-30T18:50:32.230Z,101596.19
2022-10-30T18:53:00.444Z,101596.22
2022-10-30T18:55:37.969Z,101594.47
2022-10-30T18:58:06.496Z,101592.75
2022-10-30T19:00:45.117Z,101591.88
2022-10-30T19:03:21.571Z,101591.94
2022-10-30T19:05:50.826Z,101591.94
2022-10-30T19:08:17.738Z,101593.69
2022-10-30T19:10:47.032Z,101594.59
2022-10-30T19:13:22.341Z,101592.81
2022-10-30T19:16:00.106Z,101601.59
2022-10-30T19:18:28.503Z,101598.09
2022-10-30T19:21:04.358Z,101591.13
2022-10-30T19:23:32.969Z,101606.91
2022-10-30T19:25:59.889Z,101606.91
2022-10-30T19:28:26.822Z,101604.31
2022-10-30T19:30:54.750Z,101598.19
2022-10-30T19:33:24.073Z,101596.44
2022-10-30T19:36:01.054Z,101598.22
2022-10-30T19:38:28.370Z,101596.50
2022-10-30T19:40:55.238Z,101599.09
2022-10-30T19:43:22.233Z,101593.00
2022-10-30T19:45:51.408Z,101604.41
2022-10-30T19:48:40.628Z,101607.91
2022-10-30T19:51:11.302Z,101607.94
2022-10-30T19:53:39.467Z,101607.06
2022-10-30T19:56:06.763Z,101610.56
2022-10-30T19:58:33.746Z,101611.44
2022-10-30T20:01:00.712Z,101604.44
2022-10-30T20:03:27.645Z,101600.97
2022-10-30T20:05:55.678Z,101601.84
2022-10-30T20:08:26.670Z,101600.97
2022-10-30T20:11:02.172Z,101595.75
2022-10-30T20:13:30.188Z,101600.09
2022-10-30T20:15:59.869Z,101596.63
2022-10-30T20:18:31.432Z,101598.34
2022-10-30T20:21:01.443Z,101593.97
2022-10-30T20:23:28.959Z,101604.50
2022-10-30T20:26:02.083Z,101590.50
2022-10-30T20:28:38.098Z,101611.50
2022-10-30T20:31:06.696Z,101602.72
2022-10-30T20:33:33.906Z,101603.63
2022-10-30T20:36:00.845Z,101605.34
2022-10-30T20:38:31.208Z,101600.13
2022-10-30T20:41:00.018Z,101597.50
2022-10-30T20:43:36.397Z,101600.09
2022-10-30T20:46:06.558Z,101595.72
2022-10-30T20:48:33.448Z,101592.25
2022-10-30T20:51:02.006Z,101600.13
2022-10-30T20:53:29.543Z,101597.47
2022-10-30T20:55:56.617Z,101595.75
2022-10-30T20:58:23.840Z,101598.38
2022-10-30T21:00:51.189Z,101600.13
2022-10-30T21:03:18.121Z,101601.88
2022-10-30T21:05:46.023Z,101592.25
2022-10-30T21:08:16.357Z,101593.09
2022-10-30T21:10:43.253Z,101595.75
2022-10-30T21:13:11.486Z,101585.25
2022-10-30T21:15:44.381Z,101583.50
2022-10-30T21:18:13.026Z,101586.13
2022-10-30T21:20:40.990Z,101587.88
2022-10-30T21:23:08.926Z,101589.63
2022-10-30T21:25:36.237Z,101596.63
2022-10-30T21:28:04.271Z,101590.47
2022-10-30T21:30:31.443Z,101593.13
2022-10-30T21:32:59.461Z,101600.94
2022-10-30T21:35:27.351Z,101600.97
2022-10-30T21:37:54.241Z,101603.59
2022-10-30T21:40:21.109Z,101601.81
2022-10-30T21:42:48.629Z,101599.19
2022-10-30T21:45:15.519Z,101601.81
2022-10-30T21:47:42.403Z,101587.81
2022-10-30T21:50:12.304Z,101588.69
2022-10-30T21:52:40.341Z,101592.19
2022-10-30T21:55:08.254Z,101602.63
2022-10-30T21:57:35.282Z,101607.03
2022-10-30T22:00:05.786Z,101604.34
2022-10-30T22:02:35.216Z,101596.50
2022-10-30T22:05:02.136Z,101590.34
2022-10-30T22:07:29.020Z,101592.97
2022-10-30T22:09:55.907Z,101589.47
2022-10-30T22:12:22.797Z,101593.78
2022-10-30T22:14:49.683Z,101603.41
2022-10-30T22:17:16.604Z,101607.78
2022-10-30T22:19:43.479Z,101611.28
2022-10-30T22:22:11.111Z,101606.91
2022-10-30T22:24:38.095Z,101606.00
2022-10-30T22:27:04.978Z,101606.88
2022-10-30T22:29:31.955Z,101606.84
2022-10-30T22:31:58.819Z,101608.59
2022-10-30T22:34:25.685Z,101609.47
2022-10-30T22:36:52.544Z,101613.81
2022-10-30T22:39:20.000Z,101615.50
2022-10-30T22:41:46.862Z,101619.00
2022-10-30T22:44:17.382Z,101616.38
2022-10-30T22:46:44.673Z,101621.59
2022-10-30T22:49:11.895Z,101618.13
2022-10-30T22:51:39.975Z,101617.22
2022-10-30T22:54:11.167Z,101620.66
2022-10-30T22:56:39.562Z,101612.78
2022-10-30T22:59:12.166Z,101618.00
2022-10-30T23:01:40.202Z,101614.50
2022-10-30T23:04:10.148Z,101628.44
2022-10-30T23:06:38.015Z,101624.06
2022-10-30T23:09:16.064Z,101625.81
2022-10-30T23:11:42.986Z,101627.56
2022-10-30T23:14:09.879Z,101631.06
2022-10-30T23:16:36.735Z,101627.56
2022-10-30T23:19:03.666Z,101627.56
2022-10-30T23:21:31.596Z,101630.16
2022-10-30T23:23:59.576Z,101632.78
2022-10-30T23:26:30.669Z,101621.44
2022-10-30T23:28:59.787Z,101636.25
2022-10-30T23:31:32.444Z,101632.72
2022-10-30T23:34:02.259Z,101632.72
2022-10-30T23:36:29.141Z,101634.44
2022-10-30T23:38:58.900Z,101631.81
2022-10-30T23:41:29.557Z,101633.53
2022-10-30T23:43:59.646Z,101632.63
2022-10-30T23:46:27.293Z,101628.25
2022-10-30T23:48:54.321Z,101629.09
2022-10-30T23:51:22.018Z,101629.09
2022-10-30T23:53:49.502Z,101636.00
2022-10-30T23:56:16.783Z,101635.09
2022-10-30T23:58:45.347Z,101637.69
